Weather reports worldwide

Advertisment
Puebla De D. Rodrigo, Spain (8271): temperature & dewpoint: 09.10.2019 19:00:00 - 15.10.2019 19:00:00 (CEST)Puebla De D. Rodrigo, Spain (8271): wind speed & gusts: 09.10.2019 19:00:00 - 15.10.2019 19:00:00 (CEST)Puebla De D. Rodrigo, Spain (8271): wind direction: 09.10.2019 19:00:00 - 15.10.2019 19:00:00 (CEST)Puebla De D. Rodrigo, Spain (8271): reduced air pressure: 09.10.2019 19:00:00 - 15.10.2019 19:00:00 (CEST)Puebla De D. Rodrigo, Spain (8271): precipitation: 09.10.2019 19:00:00 - 15.10.2019 19:00:00 (CEST)
Date & Time tt [°C] td [°C] ff [km/h] ff [kn] fx [km/h] fx [kn] dd ppp [hPa] rr [mm]
15.10.2019 19:00:00 16,2 2,3 0 0 3 1 N 1015,1 0,0
15.10.2019 18:00:00 18,2 2,1 0 0 8 4 WNW 1014,2 0,0
15.10.2019 17:00:00 18,8 2,7 0 0 10 6 W 1014,4 0,0
15.10.2019 16:00:00 18,1 1,9 1 0 12 6 WSW 1014,7 0,0
15.10.2019 15:00:00 18,9 2,7 0 0 6 3 W 1014,8 0,0
15.10.2019 14:00:00 18,2 3,2 0 0 10 6 WSW 1015,7 -
15.10.2019 13:00:00 15,5 4,3 0 0 0 0 N 1016,9 0,0
15.10.2019 12:00:00 14,7 6,2 0 0 0 0 N 1017,1 0,0
15.10.2019 11:00:00 12,3 6,8 0 0 0 0 N 1017,4 0,0
15.10.2019 10:00:00 9,9 6,1 0 0 0 0 N 1017,4 0,0
15.10.2019 09:00:00 7,4 6,7 0 0 0 0 N 1017,6 0,0
15.10.2019 08:00:00 6,6 5,6 0 0 0 0 N 1017,0 -
15.10.2019 07:00:00 7,5 5,6 0 0 0 0 N 1016,4 0,0
15.10.2019 06:00:00 8,2 5,8 0 0 0 0 N 1016,0 0,0
15.10.2019 05:00:00 8,6 6,1 0 0 0 0 N 1015,5 0,0
15.10.2019 04:00:00 8,7 7,6 0 0 0 0 N 1015,1 0,0
15.10.2019 03:00:00 9,7 8,5 0 0 0 0 N 1015,5 0,0
15.10.2019 02:00:00 10,5 8,9 0 0 5 3 N 1014,6 -
15.10.2019 01:00:00 11,2 9,7 0 0 0 0 N 1014,4 0,0
15.10.2019 00:00:00 11,4 10,2 0 0 0 0 N 1014,2 0,0
14.10.2019 23:00:00 11,5 10,0 0 0 4 2 N 1013,8 0,0
14.10.2019 22:00:00 11,9 10,6 0 0 7 4 WSW 1013,2 0,0
14.10.2019 21:00:00 11,1 10,0 0 0 8 5 SW 1012,8 0,1
14.10.2019 20:00:00 12,2 11,2 1 0 23 12 WSW 1011,8 -
14.10.2019 19:00:00 12,4 11,3 2 1 29 16 W 1011,7 0,6
14.10.2019 18:00:00 15,1 7,8 7 4 53 28 W 1009,9 0,0
14.10.2019 17:00:00 21,0 5,0 14 7 40 21 WSW 1007,5 0,0
14.10.2019 16:00:00 22,0 6,7 16 9 45 24 WSW 1007,1 0,0
14.10.2019 15:00:00 22,5 7,8 9 5 36 19 W 1007,2 0,0
14.10.2019 14:00:00 20,7 9,9 9 5 34 18 W 1008,4 -
14.10.2019 13:00:00 20,7 9,6 15 8 36 19 WSW 1008,6 0,0
14.10.2019 12:00:00 19,3 12,1 10 5 31 17 WSW 1008,5 0,0
14.10.2019 11:00:00 16,1 14,2 8 5 21 11 WSW 1008,8 0,1
14.10.2019 10:00:00 16,2 14,0 10 6 30 16 SW 1008,2 0,1
14.10.2019 09:00:00 17,1 10,9 8 4 35 19 S 1007,0 0,0
14.10.2019 08:00:00 17,6 11,7 16 9 52 28 SW 1006,9 -
14.10.2019 07:00:00 18,5 13,0 21 11 45 24 SW 1006,0 0,1
14.10.2019 06:00:00 19,3 8,3 2 1 11 6 WSW 1004,8 0,0
14.10.2019 05:00:00 19,8 7,6 4 2 15 8 S 1004,5 0,0
14.10.2019 04:00:00 20,7 8,9 8 5 19 10 S 1004,5 0,0
14.10.2019 03:00:00 16,8 8,8 0 0 0 0 N 1006,1 0,0
14.10.2019 02:00:00 17,3 7,3 0 0 0 0 N 1006,0 -
14.10.2019 01:00:00 19,0 6,1 0 0 0 0 N 1006,4 0,0
14.10.2019 00:00:00 18,7 5,9 0 0 1 0 NNW 1007,0 0,0
13.10.2019 23:00:00 20,7 6,2 0 0 4 2 N 1006,8 0,0
13.10.2019 22:00:00 22,2 5,9 6 3 10 5 SW 1006,5 0,0
13.10.2019 21:00:00 23,1 5,0 3 2 9 5 SSW 1006,7 0,0
13.10.2019 20:00:00 24,5 5,3 5 3 21 11 WSW 1006,3 -
13.10.2019 19:00:00 26,2 5,8 8 4 32 17 SW 1005,9 0,0
13.10.2019 18:00:00 27,5 7,4 11 6 37 20 SSW 1005,6 0,0
13.10.2019 17:00:00 27,4 8,8 9 5 30 16 SSW 1006,3 0,0
13.10.2019 16:00:00 26,6 8,5 13 7 24 13 SW 1006,7 0,0
13.10.2019 15:00:00 25,5 10,2 10 5 22 12 SW 1008,0 0,0
13.10.2019 14:00:00 23,4 10,8 10 5 23 13 SSW 1009,2 -
13.10.2019 13:00:00 22,3 11,7 2 1 17 9 SSW 1010,1 0,0
13.10.2019 12:00:00 21,8 12,6 8 4 18 10 S 1010,7 0,0
13.10.2019 11:00:00 18,0 13,1 1 0 12 7 SW 1011,5 0,0
13.10.2019 10:00:00 17,0 13,0 0 0 0 0 N 1011,2 0,0
13.10.2019 09:00:00 13,5 12,4 0 0 0 0 N 1011,3 0,0
13.10.2019 08:00:00 14,1 13,0 0 0 0 0 N 1010,7 -
13.10.2019 07:00:00 13,9 12,4 0 0 0 0 N 1010,7 0,0
13.10.2019 06:00:00 13,9 13,2 0 0 0 0 N 1010,0 0,0
13.10.2019 05:00:00 13,8 13,2 0 0 2 1 N 1009,8 0,0
13.10.2019 04:00:00 15,7 14,4 0 0 0 0 N 1009,9 0,0
13.10.2019 03:00:00 16,3 14,8 0 0 0 0 N 1009,7 0,0
13.10.2019 02:00:00 16,9 15,1 0 0 0 0 N 1009,8 -
13.10.2019 01:00:00 17,5 14,2 0 0 0 0 N 1010,1 0,0
13.10.2019 00:00:00 19,3 13,9 0 0 0 0 N 1009,8 0,0
12.10.2019 23:00:00 20,3 14,4 0 0 7 4 N 1009,4 0,0
12.10.2019 22:00:00 20,4 15,0 1 1 11 6 SE 1008,6 0,0
12.10.2019 21:00:00 18,8 16,2 1 1 18 10 WSW 1008,8 0,0
12.10.2019 20:00:00 19,9 15,8 5 3 20 11 WSW 1008,0 -
12.10.2019 19:00:00 19,1 10,2 18 10 35 19 W 1008,3 1,7
12.10.2019 18:00:00 28,4 9,2 11 6 19 11 SE 1005,7 0,0
12.10.2019 17:00:00 30,4 9,8 10 6 22 12 SSW 1005,8 0,0
12.10.2019 16:00:00 30,3 10,8 3 2 17 9 E 1006,1 0,0
12.10.2019 15:00:00 31,3 12,6 5 3 21 11 ESE 1007,1 0,0
12.10.2019 14:00:00 27,4 10,5 2 1 10 6 E 1009,1 -
12.10.2019 13:00:00 25,8 11,9 0 0 10 5 E 1009,9 0,0
12.10.2019 12:00:00 22,3 10,8 6 4 21 11 ESE 1011,1 0,0
12.10.2019 11:00:00 20,8 11,1 0 0 8 4 ESE 1010,7 0,0
12.10.2019 10:00:00 18,4 10,3 0 0 6 3 NNE 1010,8 0,0
12.10.2019 09:00:00 17,5 9,9 0 0 12 7 ESE 1010,2 0,0
12.10.2019 08:00:00 17,7 10,0 0 0 8 5 N 1010,6 -
12.10.2019 07:00:00 16,9 9,6 0 0 4 2 N 1010,9 0,0
12.10.2019 06:00:00 17,9 10,0 0 0 1 0 N 1010,9 0,0
12.10.2019 05:00:00 18,3 9,4 0 0 4 2 N 1010,3 0,0
12.10.2019 04:00:00 19,1 9,8 0 0 6 3 N 1010,8 0,0
12.10.2019 03:00:00 20,1 9,7 0 0 1 1 N 1010,9 0,0
12.10.2019 02:00:00 20,7 9,6 0 0 5 3 N 1011,1 -
12.10.2019 01:00:00 21,6 9,4 1 1 9 5 WSW 1011,4 0,0
12.10.2019 00:00:00 22,8 9,6 3 2 9 5 SW 1011,4 0,0
11.10.2019 23:00:00 23,3 8,5 3 1 16 9 SW 1011,3 0,0
11.10.2019 22:00:00 23,8 9,0 3 2 13 7 SW 1010,4 0,0
11.10.2019 21:00:00 25,1 9,4 7 4 23 13 SSW 1009,5 0,0
11.10.2019 20:00:00 26,0 9,3 6 3 16 9 SSW 1009,4 -
11.10.2019 19:00:00 27,5 9,8 8 4 26 14 S 1008,8 0,0
11.10.2019 18:00:00 28,6 11,7 8 4 20 11 SW 1008,8 0,0
11.10.2019 17:00:00 28,9 11,9 3 2 16 8 SSW 1009,0 0,0
11.10.2019 16:00:00 29,3 13,1 0 0 22 12 W 1009,5 0,0
11.10.2019 15:00:00 29,7 13,9 1 1 14 8 S 1009,8 0,0
11.10.2019 14:00:00 27,7 13,7 3 2 13 7 ESE 1011,3 -
11.10.2019 13:00:00 27,5 14,8 0 0 11 6 E 1012,3 0,0
11.10.2019 12:00:00 24,2 15,4 0 0 3 2 E 1012,9 0,0
11.10.2019 11:00:00 21,4 14,8 0 0 4 2 E 1014,3 0,0
11.10.2019 10:00:00 18,1 13,0 0 0 5 3 SSE 1014,5 0,0
11.10.2019 09:00:00 15,0 12,5 0 0 0 0 S 1014,5 0,0
11.10.2019 08:00:00 13,4 10,9 0 0 0 0 N 1014,6 -
11.10.2019 07:00:00 15,2 12,0 0 0 0 0 N 1013,6 0,0
11.10.2019 06:00:00 15,2 11,2 0 0 0 0 N 1013,2 0,0
11.10.2019 05:00:00 15,3 10,9 0 0 0 0 N 1013,2 0,0
11.10.2019 04:00:00 16,4 10,9 0 0 0 0 N 1013,1 0,0
11.10.2019 03:00:00 17,2 11,0 0 0 0 0 N 1013,3 0,0
11.10.2019 02:00:00 18,5 10,5 0 0 0 0 N 1012,7 -
11.10.2019 01:00:00 20,7 11,3 0 0 4 2 N 1012,4 0,0
11.10.2019 00:00:00 21,3 10,8 0 0 0 0 N 1012,0 0,0
10.10.2019 23:00:00 22,4 10,5 0 0 5 3 SSW 1011,6 0,0
10.10.2019 22:00:00 24,9 11,1 1 0 9 5 WSW 1010,9 0,0
10.10.2019 21:00:00 25,0 10,9 4 2 9 5 WSW 1010,3 0,0
10.10.2019 20:00:00 27,3 11,3 0 0 7 4 WSW 1009,4 -
10.10.2019 19:00:00 29,3 11,8 4 2 11 6 SW 1008,9 0,0
10.10.2019 18:00:00 31,4 12,7 2 1 14 8 W 1008,3 0,0
10.10.2019 17:00:00 31,3 13,1 8 4 19 11 SSW 1008,6 0,0
10.10.2019 16:00:00 31,5 14,1 6 3 16 9 S 1008,8 0,0
10.10.2019 15:00:00 30,9 14,9 4 2 17 9 S 1009,4 0,0
10.10.2019 14:00:00 - - - - - - - - -
10.10.2019 13:00:00 27,1 15,2 0 0 11 6 ENE 1011,6 0,0
10.10.2019 12:00:00 24,5 15,4 0 0 14 7 ESE 1012,2 0,0
10.10.2019 11:00:00 20,8 14,9 0 0 3 1 E 1012,9 0,0
10.10.2019 10:00:00 18,5 13,0 0 0 0 0 N 1012,9 0,0
10.10.2019 09:00:00 14,7 12,0 0 0 0 0 N 1013,0 0,0
10.10.2019 08:00:00 13,1 10,8 0 0 1 0 N 1013,1 -
10.10.2019 07:00:00 14,3 11,4 0 0 0 0 N 1012,3 0,0
10.10.2019 06:00:00 14,7 11,7 0 0 5 3 N 1012,0 0,0
10.10.2019 05:00:00 14,3 11,1 0 0 0 0 N 1012,1 0,0
10.10.2019 04:00:00 16,3 11,4 0 0 0 0 N 1011,4 0,0
10.10.2019 03:00:00 16,3 11,2 0 0 0 0 N 1011,7 0,0
10.10.2019 02:00:00 18,2 12,0 0 0 0 0 N 1011,6 -
10.10.2019 01:00:00 18,4 11,4 0 0 4 2 N 1011,4 0,0
10.10.2019 00:00:00 21,6 12,4 0 0 9 5 N 1010,2 0,0
09.10.2019 23:00:00 23,2 12,5 5 3 9 5 WSW 1010,0 0,0
09.10.2019 22:00:00 23,1 12,4 0 0 7 4 SW 1009,6 0,0
09.10.2019 21:00:00 23,7 11,3 3 2 10 5 WSW 1009,2 0,0
09.10.2019 20:00:00 26,2 11,6 1 1 16 9 WSW 1008,1 -
09.10.2019 19:00:00 28,7 11,7 5 3 19 11 WSW 1007,3 0,0

tt = temperature
td = dewpoint
ff = wind speed
fx = gusts
dd = wind direction
ppp = reduced air pressure
rr = precipitation

Next stations